This is the latest recevied weather packets stored in our database for station/object KE2LU. If no packets are shown the sender has not sent any weather packets the latest 10 day(s).
| Time | Temp. | Humidity | Pressure | Rain* | Wind** | Luminosity | Snow |
|---|---|---|---|---|---|---|---|
| 1777674003 | 5° C | 88% | 1012.9 hPa | 0.25 mm | - | - | - |
| 1777673703 | 5° C | 88% | 1013 hPa | 0.25 mm | - | - | - |
| 1777672803 | 5° C | 86% | 1013 hPa | 0.25 mm | - | - | - |
| 1777672203 | 5.56° C | 86% | 1012.9 hPa | 0 mm | - | - | - |
| 1777671603 | 5.56° C | 84% | 1012.9 hPa | 0 mm | - | - | - |
| 1777670103 | 6.11° C | 78% | 1012.8 hPa | 0 mm | - | - | - |
| 1777668003 | 6.67° C | 74% | 1012.7 hPa | 0 mm | - | - | - |
| 1777666203 | 7.22° C | 73% | 1012.7 hPa | 0 mm | - | - | - |
| 1777665303 | 7.22° C | 73% | 1012.8 hPa | 0 mm | - | - | - |
| 1777663504 | 7.22° C | 71% | 1012.9 hPa | 0 mm | - | - | - |
| 1777662303 | 7.22° C | 70% | 1013 hPa | 0 mm | - | - | - |
| 1777662003 | 7.22° C | 70% | 1013 hPa | 0 mm | - | - | - |
| 1777661703 | 7.22° C | 70% | 1013 hPa | 0 mm | - | - | - |
| 1777660503 | 7.78° C | 69% | 1013.1 hPa | 0 mm | - | - | - |
| 1777659004 | 8.33° C | 68% | 1013.1 hPa | 0 mm | - | - | - |
| 1777656604 | 8.33° C | 68% | 1013.1 hPa | 0 mm | - | - | - |
| 1777655103 | 8.33° C | 66% | 1013.2 hPa | 0 mm | - | - | - |
| 1777651204 | 8.33° C | 67% | 1013.4 hPa | 0 mm | - | - | - |
| 1777641304 | 8.89° C | 62% | 1014 hPa | 0 mm | - | - | - |
| 1777639803 | 8.33° C | 65% | 1014.1 hPa | 0 mm | - | - | - |
| 1777638302 | 7.78° C | 72% | 1014.3 hPa | 0 mm | - | - | - |
| 1777637402 | 7.22° C | 78% | 1014.2 hPa | 0 mm | - | - | - |
| 1777637101 | 6.67° C | 78% | 1014.3 hPa | 0 mm | - | - | - |
| 1777636802 | 6.67° C | 79% | 1014.4 hPa | 0 mm | - | - | - |
| 1777634102 | 5° C | 96% | 1014 hPa | 0 mm | - | - | - |
* Rain latest hour (hover to see other rain measurements)
** Current wind speed in m/s (hover to see current wind gust speed)